Strandquist, Minnesota
Current Conditions -  °F | °C
As of 3:53 PM on Monday 24 Nov 2014 (Local Time) from KHCO Reporting Station
Light Snow Light Snow  
Wind Chill: -1°   Ceiling: 1200
Heat Index: 16°   Visibility: 10mi
Dew Point:   Wind: 18mph
Humidity: 73%   Direction: 330°NNW
Pressure: 29.9"   Gusts: NA
Location:  48.49°N, 96.45°W
Report Text: KHCO 242153Z AUTO 33016KT 10SM -SN BKN012 BKN038 M09/M13 A2990 RMK AO2
Loading
Personal Weather Stations






























Interactive Weather Map New forecast layout! Learn more

10-Day Weather Forecast

Advertisements
Track Severe Weather on mobile